Terminal Aerodrome Forecast
Issued by NWS

Home | Current Version | Previous Version | Text Only | Print | Product List | Glossary On
Versions: 1 2 3 4 5 6 7 8 9 10 11 12 13
000
FTUS45 KRIW 241720
TAFCOD
TAF
KCOD 241720Z 2418/2518 03008KT P6SM VCSH SCT020 BKN045
     FM242300 17007KT P6SM VCSH SCT020 BKN035
     FM250300 26013G19KT P6SM SCT050
      AMD LTD TO CLD VIS AND WIND=

USA.gov is the U.S. government's official web portal to all federal, state and local government web resources and services.